Time;durP1;ratioP1;P1;durP2;ratioP2;P2;SDS_P1;SDS_P2;PMS_P1;PMS_P2;Temp;Humidity;BMP_temperature;BMP_pressure;BME280_temperature;BME280_humidity;BME280_pressure;Samples;Min_cycle;Max_cycle;Signal;HPM_P1;HPM_P2
2021/05/28 00:02:22;;;;;;;;;;;9.70;99.90;;;;;;10378652;28;20391;-81
2021/05/28 00:07:24;;;;;;;;;;;9.80;99.90;;;;;;10377123;28;19929;-81
2021/05/28 00:12:26;;;;;;;;;;;9.90;99.90;;;;;;10393631;28;20012;-81
2021/05/28 00:17:28;;;;;;;;;;;10.00;99.90;;;;;;10415326;28;19964;-81
2021/05/28 00:22:30;;;;;;;;;;;10.10;99.90;;;;;;10380501;28;20589;-81
2021/05/28 00:27:32;;;;;;;;;;;10.20;99.90;;;;;;10407228;28;19972;-81
2021/05/28 00:32:33;;;;;;;;;;;10.30;99.90;;;;;;10398902;28;19968;-81
2021/05/28 00:37:36;;;;;;;;;;;10.30;99.90;;;;;;10371666;28;19929;-81
2021/05/28 00:42:38;;;;;;;;;;;10.30;99.90;;;;;;10390344;28;19928;-81
2021/05/28 00:47:40;;;;;;;;;;;10.20;99.90;;;;;;10381949;28;19925;-81
2021/05/28 00:52:43;;;;;;;;;;;10.00;99.90;;;;;;10381194;28;20812;-81
2021/05/28 00:57:45;;;;;;;;;;;10.00;99.90;;;;;;10413437;28;19999;-81
2021/05/28 01:02:47;;;;;;;;;;;9.90;99.90;;;;;;10383265;28;19974;-81
2021/05/28 01:07:49;;;;;;;;;;;9.90;99.90;;;;;;10382380;28;19972;-81
2021/05/28 01:12:51;;;;;;;;;;;10.00;99.90;;;;;;10383402;28;19930;-81
2021/05/28 01:17:55;;;;;;;;;;;10.00;99.90;;;;;;10381913;28;20220;-81
2021/05/28 01:22:58;;;;;;;;;;;10.00;99.90;;;;;;10394133;28;19929;-82
2021/05/28 01:28:00;;;;;;;;;;;10.10;99.90;;;;;;10399657;28;19925;-81
2021/05/28 01:33:02;;;;;;;;;;;10.10;99.90;;;;;;10399159;28;19970;-81
2021/05/28 01:38:05;;;;;;;;;;;10.10;99.90;;;;;;10412495;28;20374;-81
2021/05/28 01:43:07;;;;;;;;;;;10.10;99.90;;;;;;10412294;28;19972;-81
2021/05/28 01:48:09;;;;;;;;;;;10.10;99.90;;;;;;10383974;28;19998;-81
2021/05/28 01:53:11;;;;;;;;;;;10.10;99.90;;;;;;10390555;28;19955;-81
2021/05/28 01:58:14;;;;;;;;;;;10.20;99.90;;;;;;10396260;28;20337;-81
2021/05/28 02:03:16;;;;;;;;;;;10.10;99.90;;;;;;10384737;28;19979;-82
2021/05/28 02:08:18;;;;;;;;;;;10.10;99.90;;;;;;10372445;28;20335;-82
2021/05/28 02:13:21;;;;;;;;;;;10.00;99.90;;;;;;10397638;28;19971;-82
2021/05/28 02:18:25;;;;;;;;;;;10.00;99.90;;;;;;10407019;28;19972;-82
2021/05/28 02:23:27;;;;;;;;;;;9.90;99.90;;;;;;10413409;28;19925;-82
2021/05/28 02:28:31;;;;;;;;;;;9.80;99.90;;;;;;10385724;28;19972;-83
2021/05/28 02:33:35;;;;;;;;;;;9.90;99.90;;;;;;10376892;28;19925;-83
2021/05/28 02:38:39;;;;;;;;;;;9.90;99.90;;;;;;10393675;28;20557;-83
2021/05/28 02:43:42;;;;;;;;;;;9.80;99.90;;;;;;10413488;28;19979;-84
2021/05/28 02:48:43;;;;;;;;;;;9.80;99.90;;;;;;10416480;28;19925;-83
2021/05/28 02:53:47;;;;;;;;;;;9.80;99.90;;;;;;10416129;28;19925;-83
2021/05/28 02:58:51;;;;;;;;;;;9.80;99.90;;;;;;10415240;28;19925;-83
2021/05/28 03:03:53;;;;;;;;;;;9.80;99.90;;;;;;10412130;28;19979;-82
2021/05/28 03:08:55;;;;;;;;;;;9.80;99.90;;;;;;10411874;28;19933;-82
2021/05/28 03:13:56;;;;;;;;;;;9.70;99.90;;;;;;10391596;28;20294;-82
2021/05/28 03:19:02;;;;;;;;;;;9.70;99.90;;;;;;10407330;28;19957;-82
2021/05/28 03:24:05;;;;;;;;;;;9.50;99.90;;;;;;10410502;28;19929;-82
2021/05/28 03:29:07;;;;;;;;;;;9.50;99.90;;;;;;10414056;28;19928;-82
2021/05/28 03:34:09;;;;;;;;;;;9.50;99.90;;;;;;10415105;28;20328;-82
2021/05/28 03:39:11;;;;;;;;;;;9.50;99.90;;;;;;10395248;28;19925;-82
2021/05/28 03:44:13;;;;;;;;;;;9.40;99.90;;;;;;10418869;28;20037;-82
2021/05/28 03:49:15;;;;;;;;;;;9.30;99.90;;;;;;10411181;28;19929;-82
2021/05/28 03:54:16;;;;;;;;;;;9.20;99.90;;;;;;10398355;28;20444;-82
2021/05/28 03:59:18;;;;;;;;;;;9.20;99.90;;;;;;10414638;28;19948;-82
2021/05/28 04:04:20;;;;;;;;;;;9.30;99.90;;;;;;10410095;28;19953;-82
2021/05/28 04:09:22;;;;;;;;;;;9.30;99.90;;;;;;10430571;28;20006;-82
2021/05/28 04:14:24;;;;;;;;;;;9.30;99.90;;;;;;10393234;28;19937;-82
2021/05/28 04:19:26;;;;;;;;;;;9.40;99.90;;;;;;10371553;28;20015;-82
2021/05/28 04:24:28;;;;;;;;;;;9.50;99.90;;;;;;10390791;28;19979;-82
2021/05/28 04:29:29;;;;;;;;;;;9.50;99.90;;;;;;10395230;28;19979;-82
2021/05/28 04:34:33;;;;;;;;;;;9.40;99.90;;;;;;10414195;28;19925;-84
2021/05/28 04:39:38;;;;;;;;;;;9.40;99.90;;;;;;10411125;28;19961;-83
2021/05/28 04:44:40;;;;;;;;;;;9.40;99.90;;;;;;10393255;28;20346;-83
2021/05/28 04:49:42;;;;;;;;;;;9.50;99.90;;;;;;10399988;28;19925;-83
2021/05/28 04:54:44;;;;;;;;;;;9.70;99.90;;;;;;10421103;28;19929;-83
2021/05/28 04:59:46;;;;;;;;;;;10.00;99.90;;;;;;10413520;28;19929;-83
2021/05/28 05:04:48;;;;;;;;;;;11.10;99.90;;;;;;10395807;28;19932;-83
2021/05/28 05:09:50;;;;;;;;;;;12.30;99.90;;;;;;10414087;28;19925;-83
2021/05/28 05:14:52;;;;;;;;;;;17.30;99.90;;;;;;10410880;28;19951;-87
2021/05/28 05:19:54;;;;;;;;;;;20.40;99.70;;;;;;10456503;28;19971;-85
2021/05/28 05:24:55;;;;;;;;;;;21.10;90.90;;;;;;10430908;28;19940;-87
2021/05/28 05:29:59;;;;;;;;;;;21.50;83.10;;;;;;10388281;28;19925;-91
2021/05/28 05:35:01;;;;;;;;;;;18.30;90.00;;;;;;10379952;28;20455;-90
2021/05/28 05:40:07;;;;;;;;;;;16.50;97.90;;;;;;10385753;28;19925;-83
2021/05/28 05:45:10;;;;;;;;;;;15.30;99.90;;;;;;10386325;28;19925;-81
2021/05/28 05:50:13;;;;;;;;;;;14.40;99.90;;;;;;10406956;28;20310;-82
2021/05/28 05:55:16;;;;;;;;;;;13.90;99.90;;;;;;10447945;28;19925;-82
2021/05/28 06:00:18;;;;;;;;;;;13.80;99.90;;;;;;10430582;28;20020;-82
2021/05/28 06:05:20;;;;;;;;;;;13.60;99.90;;;;;;10397132;28;19968;-82
2021/05/28 06:10:22;;;;;;;;;;;13.40;99.90;;;;;;10414195;28;19975;-82
2021/05/28 06:15:24;;;;;;;;;;;13.30;99.90;;;;;;10439377;28;19925;-82
2021/05/28 06:20:26;;;;;;;;;;;13.30;99.90;;;;;;10440382;28;19995;-81
2021/05/28 06:25:28;;;;;;;;;;;13.30;99.90;;;;;;10413774;28;20067;-81
2021/05/28 06:30:30;;;;;;;;;;;13.00;99.90;;;;;;10414110;28;19925;-81
2021/05/28 06:35:32;;;;;;;;;;;13.20;99.90;;;;;;10395149;28;20599;-81
2021/05/28 06:40:34;;;;;;;;;;;13.50;99.90;;;;;;10395862;28;19975;-81
2021/05/28 06:45:36;;;;;;;;;;;13.60;99.90;;;;;;10396759;28;19940;-82
2021/05/28 06:50:40;;;;;;;;;;;14.00;99.90;;;;;;10405852;28;19926;-81
2021/05/28 06:55:42;;;;;;;;;;;14.00;99.90;;;;;;10396879;28;20266;-82
2021/05/28 07:00:43;;;;;;;;;;;13.90;99.90;;;;;;10340976;28;19972;-82
2021/05/28 07:05:46;;;;;;;;;;;13.80;99.90;;;;;;10403478;28;20363;-81
2021/05/28 07:10:48;;;;;;;;;;;14.00;99.90;;;;;;10384899;28;19979;-81
2021/05/28 07:15:51;;;;;;;;;;;13.80;99.90;;;;;;10393602;28;19929;-81
2021/05/28 07:20:53;;;;;;;;;;;14.30;99.90;;;;;;10385454;28;19933;-81
2021/05/28 07:25:56;;;;;;;;;;;14.50;99.90;;;;;;10352420;28;19957;-81
2021/05/28 07:30:58;;;;;;;;;;;15.30;99.90;;;;;;10373089;28;19965;-81
2021/05/28 07:36:00;;;;;;;;;;;16.10;99.90;;;;;;10371673;28;20327;-81
2021/05/28 07:41:03;;;;;;;;;;;17.10;98.20;;;;;;10390894;28;19933;-82
2021/05/28 07:46:05;;;;;;;;;;;17.00;97.50;;;;;;10387835;28;19960;-81
2021/05/28 07:51:07;;;;;;;;;;;18.20;93.10;;;;;;10400264;28;20397;-81
2021/05/28 07:56:09;;;;;;;;;;;17.90;91.60;;;;;;10403367;28;19972;-81
2021/05/28 08:01:11;;;;;;;;;;;16.70;92.30;;;;;;10375853;28;19925;-81
2021/05/28 08:06:13;;;;;;;;;;;16.20;93.70;;;;;;10375258;28;20279;-81
2021/05/28 08:11:15;;;;;;;;;;;16.30;94.10;;;;;;10402046;28;19926;-81
2021/05/28 08:16:17;;;;;;;;;;;18.40;90.70;;;;;;10351369;28;19951;-81
2021/05/28 08:21:19;;;;;;;;;;;19.30;77.30;;;;;;10418526;28;19925;-81
2021/05/28 08:26:21;;;;;;;;;;;17.60;84.80;;;;;;10404101;28;19980;-82
2021/05/28 08:31:22;;;;;;;;;;;17.10;86.50;;;;;;10367711;28;19925;-81
2021/05/28 08:36:24;;;;;;;;;;;18.30;83.30;;;;;;10350730;28;19929;-81
2021/05/28 08:41:27;;;;;;;;;;;19.60;74.80;;;;;;10383651;28;19976;-82
2021/05/28 08:46:29;;;;;;;;;;;20.10;69.60;;;;;;10405368;28;19925;-80
2021/05/28 08:51:31;;;;;;;;;;;19.20;67.50;;;;;;10402385;28;19925;-82
2021/05/28 08:56:33;;;;;;;;;;;17.70;72.90;;;;;;10374773;28;19957;-81
2021/05/28 09:01:35;;;;;;;;;;;16.90;76.20;;;;;;10382699;28;20310;-81
2021/05/28 09:06:47;;;;;;;;;;;16.50;84.20;;;;;;10390225;28;20412;-80
2021/05/28 09:11:52;;;;;;;;;;;16.00;80.90;;;;;;10391764;28;20383;-81
2021/05/28 09:16:54;;;;;;;;;;;15.90;83.70;;;;;;10368277;28;19934;-80
2021/05/28 09:21:58;;;;;;;;;;;16.10;80.80;;;;;;10374371;28;19929;-81
2021/05/28 09:27:19;;;;;;;;;;;17.30;76.90;;;;;;10404596;28;20359;-80
2021/05/28 09:32:22;;;;;;;;;;;17.90;68.30;;;;;;10399868;28;19979;-81
2021/05/28 09:37:42;;;;;;;;;;;19.10;68.60;;;;;;10395570;28;19960;-81
2021/05/28 09:42:55;;;;;;;;;;;20.20;64.70;;;;;;10405491;28;19983;-81
2021/05/28 09:48:01;;;;;;;;;;;20.90;59.20;;;;;;10374203;28;20418;-82
2021/05/28 09:53:04;;;;;;;;;;;20.50;58.50;;;;;;10370720;28;20425;-81
2021/05/28 09:58:07;;;;;;;;;;;19.20;58.60;;;;;;10361035;28;20003;-80
2021/05/28 10:03:09;;;;;;;;;;;18.40;62.00;;;;;;10412512;28;20445;-81
2021/05/28 10:08:11;;;;;;;;;;;17.70;61.30;;;;;;10413714;28;19925;-81
2021/05/28 10:13:15;;;;;;;;;;;17.50;59.70;;;;;;10406580;28;19952;-81
2021/05/28 10:18:18;;;;;;;;;;;18.10;62.20;;;;;;10395284;28;19929;-81
2021/05/28 10:23:23;;;;;;;;;;;19.30;54.80;;;;;;10371224;28;19925;-81
2021/05/28 10:28:36;;;;;;;;;;;18.70;52.80;;;;;;10389845;28;19975;-81
2021/05/28 10:33:58;;;;;;;;;;;18.10;57.20;;;;;;10395151;28;19929;-81
2021/05/28 10:39:06;;;;;;;;;;;17.70;57.60;;;;;;10410836;28;19972;-81
2021/05/28 10:44:10;;;;;;;;;;;17.30;57.90;;;;;;10413012;28;19925;-81
2021/05/28 10:49:13;;;;;;;;;;;17.00;58.20;;;;;;10411299;28;19925;-81
2021/05/28 10:54:15;;;;;;;;;;;16.90;60.40;;;;;;10394663;28;19929;-81
2021/05/28 10:59:19;;;;;;;;;;;17.30;59.40;;;;;;10410395;28;20004;-81
2021/05/28 11:04:41;;;;;;;;;;;17.70;57.50;;;;;;10392715;28;19929;-81
2021/05/28 11:09:46;;;;;;;;;;;18.60;57.70;;;;;;10407932;28;19929;-81
2021/05/28 11:14:58;;;;;;;;;;;18.90;59.00;;;;;;10393156;28;19925;-81
2021/05/28 11:20:06;;;;;;;;;;;18.20;57.80;;;;;;10393105;28;19991;-82
2021/05/28 11:25:14;;;;;;;;;;;17.70;59.90;;;;;;10383222;28;19956;-83
2021/05/28 11:30:16;;;;;;;;;;;17.60;60.70;;;;;;10374420;28;19976;-83
2021/05/28 11:35:22;;;;;;;;;;;17.80;60.20;;;;;;10405636;28;19972;-82
2021/05/28 11:40:33;;;;;;;;;;;17.70;59.70;;;;;;10390369;28;19925;-82
2021/05/28 11:45:36;;;;;;;;;;;18.00;58.00;;;;;;10410016;28;19929;-83
2021/05/28 11:50:42;;;;;;;;;;;18.30;57.60;;;;;;10389698;28;20770;-83
2021/05/28 11:55:47;;;;;;;;;;;18.30;59.60;;;;;;10374119;28;19979;-83
2021/05/28 12:00:50;;;;;;;;;;;18.80;58.60;;;;;;10405246;28;19932;-83
2021/05/28 12:05:52;;;;;;;;;;;18.90;58.10;;;;;;10371821;28;19925;-84
2021/05/28 12:10:58;;;;;;;;;;;18.50;55.80;;;;;;10388503;28;19949;-84
2021/05/28 12:16:02;;;;;;;;;;;19.10;55.90;;;;;;10390336;28;20461;-85
2021/05/28 12:21:08;;;;;;;;;;;19.80;54.30;;;;;;10384022;28;20374;-82
2021/05/28 12:26:13;;;;;;;;;;;19.70;52.80;;;;;;10409116;28;19971;-82
2021/05/28 12:31:16;;;;;;;;;;;19.60;54.70;;;;;;10405407;28;19960;-83
2021/05/28 12:36:24;;;;;;;;;;;19.40;52.60;;;;;;10399930;28;19932;-82
2021/05/28 12:57:20;;;;;;;7.75;1.40;;;23.60;83.30;;;;;;10420976;28;82479;-58
2021/05/28 13:02:25;;;;;;;3.83;1.23;;;21.90;65.20;;;;;;10325391;28;101119;-59
2021/05/28 13:07:41;;;;;;;6.45;1.38;;;21.60;64.10;;;;;;10372427;28;20054;-58
2021/05/28 13:12:43;;;;;;;2.38;1.10;;;21.70;62.60;;;;;;10360324;28;20054;-59
2021/05/28 13:17:52;;;;;;;5.80;1.25;;;21.80;61.30;;;;;;10365244;28;20045;-58
2021/05/28 13:22:58;;;;;;;3.03;1.17;;;21.80;60.20;;;;;;10361701;28;20593;-58
2021/05/28 13:28:04;;;;;;;3.72;1.30;;;21.90;59.60;;;;;;10356792;28;20085;-59
2021/05/28 13:33:18;;;;;;;6.22;1.30;;;22.00;59.00;;;;;;10371585;28;20141;-58
2021/05/28 13:38:21;;;;;;;5.50;1.20;;;22.10;58.50;;;;;;10374114;28;20085;-59
2021/05/28 13:43:24;;;;;;;3.53;1.02;;;22.20;58.10;;;;;;10356014;28;20045;-60
2021/05/28 13:48:26;;;;;;;2.80;1.17;;;22.30;57.90;;;;;;10361830;28;20070;-60
2021/05/28 13:53:29;;;;;;;3.97;1.30;;;22.40;57.50;;;;;;10338330;28;20133;-60
2021/05/28 13:58:32;;;;;;;1.42;1.00;;;22.40;56.90;;;;;;10350706;28;20050;-60
2021/05/28 14:03:34;;;;;;;4.55;1.17;;;22.50;56.30;;;;;;10349942;28;20153;-60
2021/05/28 14:08:36;;;;;;;2.80;1.30;;;22.50;56.00;;;;;;10348104;28;20388;-59
2021/05/28 14:13:38;;;;;;;2.97;1.40;;;22.60;55.30;;;;;;10349168;28;20253;-60
2021/05/28 14:18:40;;;;;;;3.20;1.13;;;22.70;54.70;;;;;;10328431;28;20049;-60
2021/05/28 14:23:43;;;;;;;3.35;1.10;;;22.70;54.40;;;;;;10327963;28;20077;-60
2021/05/28 14:28:45;;;;;;;2.15;1.30;;;22.80;54.00;;;;;;10328704;28;20082;-60
2021/05/28 14:34:20;;;;;;;2.75;1.20;;;22.80;53.80;;;;;;10327496;28;20137;-60
2021/05/28 14:39:18;;;;;;;2.03;1.10;;;22.80;53.50;;;;;;10325291;28;20571;-59
2021/05/28 14:44:20;;;;;;;2.38;1.05;;;22.90;53.30;;;;;;10326350;28;20560;-60
2021/05/28 14:49:22;;;;;;;2.33;1.02;;;22.90;52.90;;;;;;10327160;28;20149;-60
2021/05/28 14:54:24;;;;;;;1.95;1.08;;;23.10;52.60;;;;;;10333623;28;20039;-60
2021/05/28 14:59:26;;;;;;;2.30;1.20;;;23.10;52.40;;;;;;10325399;28;20109;-60
2021/05/28 15:04:28;;;;;;;1.50;1.10;;;23.10;52.00;;;;;;10317817;28;20162;-60
2021/05/28 15:09:30;;;;;;;3.60;1.20;;;23.10;52.00;;;;;;10325222;28;20104;-60
2021/05/28 15:14:33;;;;;;;2.10;1.10;;;23.20;51.90;;;;;;10322888;28;20145;-58
2021/05/28 15:19:35;;;;;;;1.48;1.10;;;23.20;52.20;;;;;;10321151;28;20246;-59
2021/05/28 15:24:39;;;;;;;2.85;1.10;;;23.20;51.80;;;;;;10324648;28;20042;-58
2021/05/28 15:29:46;;;;;;;1.65;1.20;;;23.20;51.60;;;;;;10325299;28;20046;-59
2021/05/28 15:34:49;;;;;;;1.98;1.15;;;23.30;51.40;;;;;;10326928;28;20077;-58
2021/05/28 15:39:50;;;;;;;4.05;1.10;;;23.30;51.30;;;;;;10326515;28;20129;-59
2021/05/28 15:44:52;;;;;;;2.72;1.30;;;23.30;51.20;;;;;;10326419;28;20168;-59
2021/05/28 15:49:55;;;;;;;2.15;1.20;;;23.30;50.90;;;;;;10325289;28;20078;-59
2021/05/28 15:54:56;;;;;;;1.83;1.30;;;23.30;50.80;;;;;;10325554;28;20090;-59
2021/05/28 15:59:58;;;;;;;2.92;1.10;;;23.30;50.40;;;;;;10326260;28;21014;-59
2021/05/28 16:05:01;;;;;;;1.65;1.20;;;23.10;50.10;;;;;;10325947;28;20053;-59
2021/05/28 16:10:08;;;;;;;2.50;1.15;;;23.30;49.90;;;;;;10325644;28;20533;-59
2021/05/28 16:15:10;;;;;;;2.10;1.20;;;23.30;49.40;;;;;;10325926;28;20046;-59
2021/05/28 16:51:56;;;;;;;;;;;18.40;53.90;;;;;;10607760;27;19927;-63
2021/05/28 16:56:58;;;;;;;;;;;18.10;50.40;;;;;;10606340;27;19934;-62
2021/05/28 17:02:00;;;;;;;;;;;18.40;50.70;;;;;;10622308;27;20019;-62
2021/05/28 17:07:02;;;;;;;;;;;18.60;49.70;;;;;;10607330;27;20014;-63
2021/05/28 17:12:04;;;;;;;;;;;18.70;50.40;;;;;;10591664;27;19938;-62
2021/05/28 17:17:06;;;;;;;;;;;18.70;50.30;;;;;;10623461;27;20291;-63
2021/05/28 17:22:08;;;;;;;;;;;18.40;50.30;;;;;;10600561;28;19950;-62
2021/05/28 17:27:10;;;;;;;;;;;18.30;52.10;;;;;;10596767;27;20397;-63
2021/05/28 17:32:11;;;;;;;;;;;18.10;51.20;;;;;;10619183;27;19946;-63
2021/05/28 17:37:14;;;;;;;;;;;18.30;53.20;;;;;;10603559;27;19931;-63
2021/05/28 17:42:15;;;;;;;;;;;18.30;50.70;;;;;;10574317;28;20319;-63
2021/05/28 17:47:19;;;;;;;;;;;18.20;49.60;;;;;;10588892;27;19924;-63
2021/05/28 17:52:21;;;;;;;;;;;18.00;48.70;;;;;;10570489;27;20539;-63
2021/05/28 17:57:22;;;;;;;;;;;17.80;50.30;;;;;;10600270;28;19930;-69
2021/05/28 18:02:26;;;;;;;;;;;17.70;51.80;;;;;;10584561;27;19932;-69
2021/05/28 18:07:27;;;;;;;;;;;17.40;53.30;;;;;;10571920;28;20438;-69
2021/05/28 18:12:29;;;;;;;;;;;17.20;54.90;;;;;;10543703;27;20334;-70
2021/05/28 18:17:31;;;;;;;;;;;17.20;55.70;;;;;;10574588;27;19938;-70
2021/05/28 18:22:34;;;;;;;;;;;17.20;55.00;;;;;;10577219;27;19938;-70
2021/05/28 18:27:36;;;;;;;;;;;17.10;57.60;;;;;;10565871;28;19928;-70
2021/05/28 18:32:38;;;;;;;;;;;17.10;58.00;;;;;;10575393;27;19930;-70
2021/05/28 18:37:41;;;;;;;;;;;16.90;60.40;;;;;;10583779;27;19928;-70
2021/05/28 18:42:42;;;;;;;;;;;16.70;61.90;;;;;;10572945;28;19924;-70
2021/05/28 18:47:48;;;;;;;;;;;16.40;64.50;;;;;;10572178;27;19953;-70
2021/05/28 18:52:51;;;;;;;;;;;16.10;67.90;;;;;;10574199;28;19974;-70
2021/05/28 18:57:53;;;;;;;;;;;15.80;70.80;;;;;;10576914;27;20335;-69
2021/05/28 19:02:55;;;;;;;;;;;15.60;73.70;;;;;;10590246;27;19924;-70
2021/05/28 19:07:57;;;;;;;;;;;15.30;80.00;;;;;;10572784;28;19932;-70
2021/05/28 19:12:59;;;;;;;;;;;15.00;87.50;;;;;;10572709;27;19924;-70
2021/05/28 19:18:05;;;;;;;;;;;14.90;90.90;;;;;;10600547;27;20346;-70
2021/05/28 19:23:07;;;;;;;;;;;14.80;90.10;;;;;;10541503;28;19934;-70
2021/05/28 19:28:09;;;;;;;;;;;14.40;93.50;;;;;;10561549;28;20014;-70
2021/05/28 19:33:13;;;;;;;;;;;14.20;96.10;;;;;;10570714;28;19923;-70
2021/05/28 19:38:15;;;;;;;;;;;14.10;98.60;;;;;;10573170;27;19970;-70
2021/05/28 19:43:17;;;;;;;;;;;14.00;99.90;;;;;;10572605;28;19951;-70
2021/05/28 19:48:19;;;;;;;;;;;13.80;99.90;;;;;;10571450;28;20382;-70
2021/05/28 19:58:24;;;;;;;;;;;13.50;99.90;;;;;;10571753;28;19932;-70
2021/05/28 20:03:27;;;;;;;;;;;13.30;99.90;;;;;;10568756;28;19930;-70
2021/05/28 20:08:29;;;;;;;;;;;13.10;99.90;;;;;;10571054;28;19978;-70
2021/05/28 20:18:52;;;;;;;;;;;12.80;99.90;;;;;;10570773;28;19923;-70
2021/05/28 20:23:56;;;;;;;;;;;12.60;99.90;;;;;;10569441;28;19955;-70
2021/05/28 20:28:57;;;;;;;;;;;12.50;99.90;;;;;;10570436;28;19930;-70
2021/05/28 20:34:02;;;;;;;;;;;12.30;99.90;;;;;;10569367;28;19928;-70
2021/05/28 20:39:06;;;;;;;;;;;12.10;99.90;;;;;;10568626;28;19934;-70
2021/05/28 20:44:08;;;;;;;;;;;12.10;99.90;;;;;;10570087;28;19967;-70
2021/05/28 20:49:10;;;;;;;;;;;11.90;99.90;;;;;;10569639;28;19928;-70
2021/05/28 20:54:11;;;;;;;;;;;11.80;99.90;;;;;;10569295;28;19934;-70
2021/05/28 20:59:13;;;;;;;;;;;11.70;99.90;;;;;;10569699;28;19928;-70
2021/05/28 21:09:21;;;;;;;;;;;11.50;99.90;;;;;;10570526;28;20425;-70
2021/05/28 21:14:23;;;;;;;;;;;11.40;99.90;;;;;;10568104;28;20006;-70
2021/05/28 21:19:25;;;;;;;;;;;11.30;99.90;;;;;;10570569;28;19942;-70
2021/05/28 21:24:27;;;;;;;;;;;11.10;99.90;;;;;;10569883;28;19923;-70
2021/05/28 21:29:31;;;;;;;;;;;10.70;99.90;;;;;;10569621;28;20299;-70
2021/05/28 21:34:33;;;;;;;;;;;10.10;99.90;;;;;;10570626;28;19934;-70
2021/05/28 21:39:36;;;;;;;;;;;10.20;99.90;;;;;;10577543;27;19928;-70
2021/05/28 21:44:37;;;;;;;;;;;10.50;99.90;;;;;;10577424;28;19923;-70
2021/05/28 21:49:39;;;;;;;;;;;10.60;99.90;;;;;;10576797;28;19924;-70
2021/05/28 21:54:41;;;;;;;;;;;10.50;99.90;;;;;;10576133;28;19923;-70
2021/05/28 21:59:43;;;;;;;;;;;10.20;99.90;;;;;;10575789;28;20018;-70
2021/05/28 22:04:45;;;;;;;;;;;10.30;99.90;;;;;;10576028;28;20397;-69
2021/05/28 22:09:47;;;;;;;;;;;10.20;99.90;;;;;;10576697;28;19969;-70
2021/05/28 22:14:48;;;;;;;;;;;10.20;99.90;;;;;;10575924;28;20422;-70
2021/05/28 22:19:50;;;;;;;;;;;10.10;99.90;;;;;;10575945;28;19930;-70
2021/05/28 22:24:52;;;;;;;;;;;10.10;99.90;;;;;;10575504;28;19930;-70
2021/05/28 22:34:55;;;;;;;;;;;10.00;99.90;;;;;;10575348;28;20018;-70
2021/05/28 22:39:57;;;;;;;;;;;10.00;99.90;;;;;;10575682;28;20019;-70
2021/05/28 22:45:12;;;;;;;;;;;9.90;99.90;;;;;;10574211;28;20294;-69
2021/05/28 22:50:13;;;;;;;;;;;9.70;99.90;;;;;;10573998;28;20052;-69
2021/05/28 22:55:15;;;;;;;;;;;9.60;99.90;;;;;;10575092;28;19934;-70
2021/05/28 23:00:17;;;;;;;;;;;9.60;99.90;;;;;;10574262;28;20014;-70
2021/05/28 23:05:19;;;;;;;;;;;9.50;99.90;;;;;;10574038;28;20143;-70
2021/05/28 23:15:24;;;;;;;;;;;9.40;99.90;;;;;;10574214;28;19937;-70
2021/05/28 23:20:26;;;;;;;;;;;9.20;99.90;;;;;;10573548;28;20391;-70
2021/05/28 23:25:28;;;;;;;;;;;9.10;99.90;;;;;;10573538;28;19930;-70
2021/05/28 23:30:29;;;;;;;;;;;9.00;99.90;;;;;;10571720;28;19928;-70
2021/05/28 23:35:31;;;;;;;;;;;8.90;99.90;;;;;;10572614;28;20434;-70
2021/05/28 23:40:33;;;;;;;;;;;8.80;99.90;;;;;;10573238;28;19937;-70
2021/05/28 23:45:35;;;;;;;;;;;8.80;99.90;;;;;;10572334;28;19923;-70
2021/05/28 23:50:56;;;;;;;;;;;8.70;99.90;;;;;;10573060;27;20527;-70
2021/05/28 23:55:59;;;;;;;;;;;8.60;99.90;;;;;;10543599;28;20363;-70
